Time;durP1;ratioP1;P1;durP2;ratioP2;P2;SDS_P1;SDS_P2;PMS_P1;PMS_P2;Temp;Humidity;BMP_temperature;BMP_pressure;BME280_temperature;BME280_humidity;BME280_pressure;Samples;Min_cycle;Max_cycle;Signal;HPM_P1;HPM_P2
2023/09/12 00:02:17;;;;;;;8.93;8.02;;;;;;;26.21;50.42;100868.16;4999297;28;20169;-61
2023/09/12 00:04:44;;;;;;;8.93;7.90;;;;;;;26.22;50.51;100869.84;4998117;28;20054;-61
2023/09/12 00:07:12;;;;;;;8.75;7.95;;;;;;;26.22;50.51;100863.56;4998425;28;20042;-61
2023/09/12 00:09:39;;;;;;;10.77;8.38;;;;;;;26.22;50.46;100864.41;4994092;28;20057;-61
2023/09/12 00:12:06;;;;;;;8.88;7.97;;;;;;;26.22;50.40;100859.00;4999461;28;20508;-61
2023/09/12 00:14:34;;;;;;;8.43;7.72;;;;;;;26.23;50.55;100862.56;4998314;28;20516;-61
2023/09/12 00:17:01;;;;;;;8.77;7.88;;;;;;;26.22;50.53;100852.72;4998025;28;20049;-61
2023/09/12 00:19:29;;;;;;;8.88;8.05;;;;;;;26.23;50.55;100859.84;4997748;28;20058;-61
2023/09/12 00:21:56;;;;;;;10.20;9.20;;;;;;;26.22;50.41;100861.72;4998753;28;20057;-59
2023/09/12 00:24:23;;;;;;;9.07;8.18;;;;;;;26.23;50.42;100857.97;4997969;28;20516;-59
2023/09/12 00:26:51;;;;;;;8.82;8.02;;;;;;;26.23;50.53;100857.13;4997765;28;20054;-59
2023/09/12 00:29:18;;;;;;;9.65;8.65;;;;;;;26.22;50.66;100858.16;4998134;28;20501;-59
2023/09/12 00:31:46;;;;;;;9.75;8.30;;;;;;;26.23;50.57;100857.13;4998396;28;20046;-59
2023/09/12 00:34:17;;;;;;;9.93;8.57;;;;;;;26.22;50.67;100855.44;4997402;28;20047;-59
2023/09/12 00:36:44;;;;;;;9.68;8.77;;;;;;;26.22;50.58;100848.13;4997740;28;20053;-59
2023/09/12 00:39:11;;;;;;;9.68;8.75;;;;;;;26.23;50.38;100846.28;4997527;28;20046;-59
2023/09/12 00:41:39;;;;;;;9.10;8.25;;;;;;;26.22;50.43;100845.44;4996965;28;20046;-59
2023/09/12 00:44:06;;;;;;;8.98;8.10;;;;;;;26.22;50.64;100842.72;4997991;28;20047;-59
2023/09/12 00:46:34;;;;;;;9.40;8.23;;;;;;;26.22;50.49;100841.88;4997651;28;20106;-59
2023/09/12 00:49:06;;;;;;;8.90;8.10;;;;;;;26.20;50.76;100833.88;4997250;28;20042;-61
2023/09/12 00:51:34;;;;;;;8.30;7.47;;;;;;;26.22;50.69;100842.72;4996317;28;20081;-61
2023/09/12 00:54:03;;;;;;;9.20;8.30;;;;;;;26.22;50.69;100844.59;4997261;28;20046;-61
2023/09/12 00:56:32;;;;;;;9.18;8.32;;;;;;;26.22;50.71;100842.72;4995792;28;20054;-61
2023/09/12 00:59:01;;;;;;;9.35;8.40;;;;;;;26.23;50.62;100846.28;4997182;28;20513;-61
2023/09/12 01:01:29;;;;;;;8.73;7.88;;;;;;;26.22;50.54;100839.16;4998221;28;20050;-61
2023/09/12 01:03:57;;;;;;;8.68;7.88;;;;;;;26.21;50.69;100843.75;4995159;28;20532;-61
2023/09/12 01:06:26;;;;;;;8.68;7.78;;;;;;;26.23;50.72;100844.41;4996853;28;20051;-61
2023/09/12 01:08:54;;;;;;;9.43;8.52;;;;;;;26.23;50.67;100847.09;4995517;28;20500;-59
2023/09/12 01:11:22;;;;;;;9.27;8.48;;;;;;;26.22;50.58;100844.59;5001692;28;20057;-61
2023/09/12 01:13:50;;;;;;;8.30;7.50;;;;;;;26.22;50.69;100850.84;4995555;28;20397;-61
2023/09/12 01:16:17;;;;;;;9.25;8.35;;;;;;;26.23;50.73;100848.97;4996598;28;20051;-61
2023/09/12 01:18:45;;;;;;;9.07;8.27;;;;;;;26.23;50.66;100851.69;4996598;28;20050;-61
2023/09/12 01:21:43;;;;;;;8.45;7.65;;;;;;;26.22;50.71;100848.13;5002751;28;20042;-61
2023/09/12 01:24:11;;;;;;;8.45;7.72;;;;;;;26.22;50.60;100844.59;4990117;28;20130;-61
2023/09/12 01:27:13;;;;;;;8.27;7.47;;;;;;;26.24;50.74;100847.94;4994824;28;20061;-61
2023/09/12 01:29:42;;;;;;;8.98;8.18;;;;;;;26.21;50.59;100846.47;4992519;28;20065;-61
2023/09/12 01:32:10;;;;;;;9.80;8.80;;;;;;;26.21;50.80;100843.75;4996466;28;20057;-61
2023/09/12 01:34:38;;;;;;;8.50;7.63;;;;;;;26.21;50.72;100853.72;4995988;28;20421;-61
2023/09/12 01:37:05;;;;;;;8.95;8.15;;;;;;;26.21;50.79;100846.47;4996553;28;20053;-61
2023/09/12 01:39:33;;;;;;;9.05;8.25;;;;;;;26.22;50.86;100847.31;4995508;28;20054;-59
2023/09/12 01:42:01;;;;;;;9.10;8.20;;;;;;;26.22;50.68;100852.72;4996594;28;20053;-59
2023/09/12 01:44:31;;;;;;;8.15;7.45;;;;;;;26.22;50.98;100852.72;4995778;28;20066;-59
2023/09/12 01:47:03;;;;;;;9.18;8.32;;;;;;;26.21;50.79;100846.47;4996304;28;20054;-59
2023/09/12 01:49:33;;;;;;;8.93;8.02;;;;;;;26.22;50.68;100844.59;4996576;28;20401;-59
2023/09/12 01:52:01;;;;;;;9.77;8.77;;;;;;;26.21;50.86;100849.16;4994631;28;20487;-59
2023/09/12 01:54:29;;;;;;;9.13;8.30;;;;;;;26.21;50.78;100851.88;4995591;28;20065;-59
2023/09/12 01:56:58;;;;;;;9.60;8.70;;;;;;;26.21;50.75;100849.16;4994649;28;20477;-59
2023/09/12 01:59:26;;;;;;;8.82;8.02;;;;;;;26.21;50.81;100849.16;4994942;28;20061;-61
2023/09/12 02:01:53;;;;;;;8.95;8.15;;;;;;;26.21;50.96;100859.16;4993687;28;20050;-61
2023/09/12 02:04:20;;;;;;;8.90;8.10;;;;;;;26.21;50.76;100851.00;4995348;28;20053;-61
2023/09/12 02:06:48;;;;;;;9.00;8.15;;;;;;;26.22;50.73;100858.16;4994267;28;20058;-61
2023/09/12 02:09:16;;;;;;;9.02;8.13;;;;;;;26.22;50.53;100852.72;4996336;28;20404;-61
2023/09/12 02:11:43;;;;;;;8.55;7.82;;;;;;;26.20;50.80;100850.16;4995984;28;20053;-61
2023/09/12 02:14:10;;;;;;;9.07;8.27;;;;;;;26.21;50.79;100860.03;4997133;28;20053;-62
2023/09/12 02:16:38;;;;;;;8.65;7.90;;;;;;;26.20;50.78;100852.88;4995657;28;20053;-61
2023/09/12 02:19:10;;;;;;;10.18;9.20;;;;;;;26.21;50.66;100856.44;4995823;28;20054;-61
2023/09/12 02:21:38;;;;;;;9.05;8.25;;;;;;;26.21;50.73;100861.88;4994193;28;20050;-61
2023/09/12 02:24:06;;;;;;;9.38;8.48;;;;;;;26.20;50.72;100858.31;4996771;28;20049;-61
2023/09/12 02:26:36;;;;;;;9.50;8.52;;;;;;;26.19;50.71;100851.19;4995458;28;20420;-61
2023/09/12 02:29:05;;;;;;;10.13;9.13;;;;;;;26.20;50.74;100857.47;4987012;28;20408;-61
2023/09/12 02:31:33;;;;;;;9.35;8.50;;;;;;;26.20;50.76;100862.91;4994437;28;20050;-60
2023/09/12 02:34:00;;;;;;;9.82;8.93;;;;;;;26.20;50.75;100854.75;4996174;28;20053;-61
2023/09/12 02:36:28;;;;;;;9.95;9.05;;;;;;;26.19;50.73;100855.78;4995848;28;20054;-61
2023/09/12 02:38:56;;;;;;;9.27;8.38;;;;;;;26.19;50.99;100855.78;4995404;28;20046;-59
2023/09/12 02:41:23;;;;;;;9.48;8.65;;;;;;;26.19;50.71;100862.06;4994576;28;20061;-59
2023/09/12 02:43:50;;;;;;;9.88;8.98;;;;;;;26.19;50.69;100859.34;4996307;28;20412;-59
2023/09/12 02:46:18;;;;;;;9.70;8.80;;;;;;;26.19;50.79;100864.78;4995663;28;20050;-59
2023/09/12 02:48:45;;;;;;;9.43;8.52;;;;;;;26.19;50.75;100858.50;4993862;28;20408;-61
2023/09/12 02:51:13;;;;;;;9.13;8.32;;;;;;;26.18;50.92;100857.66;4995410;28;20053;-61
2023/09/12 02:53:40;;;;;;;9.93;9.02;;;;;;;26.18;50.72;100862.25;4995499;28;20493;-61
2023/09/12 02:56:08;;;;;;;9.05;8.25;;;;;;;26.19;50.70;100861.22;4995530;28;20065;-61
2023/09/12 02:58:35;;;;;;;9.77;8.85;;;;;;;26.18;50.84;100862.25;4993453;28;20053;-61
2023/09/12 03:01:06;;;;;;;9.82;9.00;;;;;;;26.18;50.74;100862.25;4993911;28;20054;-61
2023/09/12 03:03:34;;;;;;;9.50;8.60;;;;;;;26.17;50.73;100855.97;4993792;28;20416;-61
2023/09/12 03:06:03;;;;;;;9.38;8.38;;;;;;;26.17;50.88;100852.38;4993782;28;20054;-60
2023/09/12 03:08:31;;;;;;;10.02;9.13;;;;;;;26.17;50.85;100860.53;4995042;28;20499;-61
2023/09/12 03:10:58;;;;;;;9.40;8.60;;;;;;;26.18;50.82;100862.25;4994703;28;20050;-61
2023/09/12 03:13:26;;;;;;;10.90;9.90;;;;;;;26.17;50.75;100858.69;4996829;28;20050;-61
2023/09/12 03:15:54;;;;;;;10.30;9.30;;;;;;;26.17;50.86;100860.53;4998040;28;20050;-61
2023/09/12 03:18:21;;;;;;;9.90;9.00;;;;;;;26.17;50.82;100871.38;4999174;28;20061;-59
2023/09/12 03:20:48;;;;;;;10.20;9.05;;;;;;;26.17;50.65;100860.53;4998709;28;20054;-59
2023/09/12 03:23:16;;;;;;;10.88;9.77;;;;;;;26.16;50.64;100856.13;4992557;28;20107;-59
2023/09/12 03:25:43;;;;;;;10.70;9.70;;;;;;;26.16;50.70;100858.84;4999190;28;20050;-59
2023/09/12 03:28:11;;;;;;;10.02;9.13;;;;;;;26.16;50.79;100851.53;4997266;28;20054;-59
2023/09/12 03:30:39;;;;;;;10.13;9.15;;;;;;;26.17;50.71;100849.66;4999979;28;20046;-59
2023/09/12 03:33:07;;;;;;;9.57;8.70;;;;;;;26.15;50.77;100849.84;4997687;28;20057;-59
2023/09/12 03:35:35;;;;;;;9.23;8.35;;;;;;;26.16;50.79;100850.69;4999049;28;20389;-59
2023/09/12 03:38:03;;;;;;;10.48;9.55;;;;;;;26.16;50.82;100850.69;4997391;28;20062;-59
2023/09/12 03:40:31;;;;;;;9.65;8.80;;;;;;;26.17;50.75;100857.81;4999666;28;20058;-59
2023/09/12 03:42:59;;;;;;;10.13;9.23;;;;;;;26.16;50.80;100848.00;4997047;28;20054;-60
2023/09/12 03:45:27;;;;;;;10.65;9.75;;;;;;;26.17;50.84;100852.38;4997258;28;20054;-61
2023/09/12 03:47:54;;;;;;;9.10;8.30;;;;;;;26.14;50.85;100851.72;4996615;28;20058;-60
2023/09/12 03:50:22;;;;;;;10.40;9.40;;;;;;;26.16;50.83;100853.41;4981903;28;20054;-59
2023/09/12 03:52:49;;;;;;;9.55;8.52;;;;;;;26.16;50.82;100853.41;4993724;28;20062;-59
2023/09/12 03:55:16;;;;;;;10.52;9.52;;;;;;;26.15;50.84;100847.16;4996449;28;20046;-59
2023/09/12 03:57:44;;;;;;;10.40;9.50;;;;;;;26.15;50.86;100852.56;4996700;28;20046;-59
2023/09/12 04:00:13;;;;;;;10.18;9.18;;;;;;;26.14;50.80;100851.72;4997677;28;20070;-59
2023/09/12 04:02:43;;;;;;;10.23;9.23;;;;;;;26.13;50.84;100855.47;4996752;28;20054;-59
2023/09/12 04:05:11;;;;;;;9.90;8.98;;;;;;;26.14;50.76;100856.31;4996902;28;20050;-59
2023/09/12 04:07:38;;;;;;;10.73;9.63;;;;;;;26.13;50.79;100860.91;4996737;28;20061;-59
2023/09/12 04:10:06;;;;;;;10.20;9.30;;;;;;;26.13;50.96;100855.47;4998803;28;20054;-59
2023/09/12 04:12:33;;;;;;;9.80;8.90;;;;;;;26.12;50.90;100861.91;4996586;28;20057;-59
2023/09/12 04:15:01;;;;;;;10.48;9.48;;;;;;;26.12;50.77;100853.75;4998444;28;20057;-59
2023/09/12 04:17:28;;;;;;;9.82;8.93;;;;;;;26.13;50.95;100865.50;4996314;28;20054;-59
2023/09/12 04:19:55;;;;;;;10.05;9.10;;;;;;;26.12;51.00;100859.19;4997917;28;20512;-59
2023/09/12 04:22:23;;;;;;;10.93;8.55;;;;;;;26.12;50.91;100866.47;4997988;28;20050;-59
2023/09/12 04:24:50;;;;;;;9.95;9.05;;;;;;;26.11;50.81;100860.22;4995817;28;20077;-59
2023/09/12 04:27:18;;;;;;;9.50;8.70;;;;;;;26.11;50.54;100860.22;4997640;28;20046;-59
2023/09/12 04:29:45;;;;;;;10.55;9.55;;;;;;;26.11;50.72;100868.34;4997137;28;20077;-61
2023/09/12 04:32:13;;;;;;;9.90;9.00;;;;;;;26.10;50.78;100872.09;4996018;28;20428;-59
2023/09/12 04:34:43;;;;;;;10.38;9.48;;;;;;;26.11;50.80;100868.34;5012152;28;20065;-59
2023/09/12 04:37:11;;;;;;;10.32;9.43;;;;;;;26.13;50.75;100881.78;4995839;28;20050;-59
2023/09/12 04:39:38;;;;;;;10.60;9.60;;;;;;;26.11;50.64;100879.22;4997367;28;20389;-61
2023/09/12 04:42:06;;;;;;;9.55;8.65;;;;;;;26.09;50.69;100881.28;4995884;28;20076;-61
2023/09/12 04:44:39;;;;;;;10.05;9.13;;;;;;;26.11;50.70;100878.38;4996181;28;20421;-61
2023/09/12 04:47:06;;;;;;;;;;;;;;;26.09;50.70;100885.81;4996477;28;20050;-61
2023/09/12 04:49:33;;;;;;;10.10;9.10;;;;;;;26.10;50.57;100882.13;4998611;28;20408;-61
2023/09/12 04:52:01;;;;;;;10.70;9.55;;;;;;;26.09;50.75;100880.41;4995774;28;20050;-61
2023/09/12 04:54:28;;;;;;;9.52;8.63;;;;;;;26.10;50.70;100887.53;4997506;28;20062;-61
2023/09/12 04:56:55;;;;;;;11.30;10.20;;;;;;;26.09;50.81;100878.56;4997131;28;20053;-61
2023/09/12 04:59:23;;;;;;;10.65;9.57;;;;;;;26.09;50.81;100889.41;4997215;28;20489;-61
2023/09/12 05:01:51;;;;;;;10.10;9.10;;;;;;;26.09;50.70;100886.69;4995484;28;20501;-61
2023/09/12 05:04:18;;;;;;;10.63;9.52;;;;;;;26.09;50.71;100892.13;4995803;28;20065;-61
2023/09/12 05:06:46;;;;;;;10.27;9.30;;;;;;;26.09;50.83;100894.84;4997090;28;20046;-61
2023/09/12 05:09:14;;;;;;;9.63;8.73;;;;;;;26.09;50.72;100896.69;4993212;28;20053;-61
2023/09/12 05:11:41;;;;;;;9.98;8.93;;;;;;;26.09;50.90;100902.97;4995800;28;20066;-61
2023/09/12 05:14:09;;;;;;;9.98;9.05;;;;;;;26.09;50.91;100904.81;4997249;28;20054;-61
2023/09/12 05:16:37;;;;;;;11.60;8.80;;;;;;;26.08;50.66;100913.97;4996814;28;20516;-61
2023/09/12 05:19:04;;;;;;;10.98;9.88;;;;;;;26.08;50.70;100914.81;4996427;28;20480;-59
2023/09/12 05:21:32;;;;;;;11.02;9.95;;;;;;;26.09;50.64;100904.81;4995232;28;20046;-59
2023/09/12 05:24:00;;;;;;;10.02;9.13;;;;;;;26.09;50.75;100902.97;4996938;28;20051;-59
2023/09/12 05:26:27;;;;;;;9.80;8.90;;;;;;;26.08;50.89;100903.13;4996888;28;20053;-59
2023/09/12 05:28:54;;;;;;;10.80;9.75;;;;;;;26.08;50.77;100906.69;4997244;28;20492;-59
2023/09/12 05:31:22;;;;;;;10.07;9.18;;;;;;;26.08;50.73;100917.53;5011012;28;20422;-59
2023/09/12 05:33:49;;;;;;;10.60;9.65;;;;;;;26.09;50.73;100921.09;4995251;28;20057;-59
2023/09/12 05:36:17;;;;;;;10.15;9.00;;;;;;;26.08;50.67;100928.38;4995291;28;20066;-59
2023/09/12 05:38:44;;;;;;;9.48;8.65;;;;;;;26.09;50.60;100937.38;4995852;28;20412;-61
2023/09/12 05:41:12;;;;;;;9.90;9.00;;;;;;;26.08;50.80;100938.41;4996405;28;20046;-61
2023/09/12 05:43:39;;;;;;;9.52;8.68;;;;;;;26.09;50.71;100940.97;4995339;28;20054;-61
2023/09/12 05:46:07;;;;;;;10.45;9.40;;;;;;;26.08;50.62;100939.25;4994770;28;20050;-61
2023/09/12 05:48:34;;;;;;;9.85;8.98;;;;;;;26.07;50.73;100940.28;4997072;28;20057;-61
2023/09/12 05:51:02;;;;;;;9.48;8.68;;;;;;;26.08;50.79;100943.81;4996043;28;20061;-61
2023/09/12 05:53:30;;;;;;;10.13;9.13;;;;;;;26.08;50.73;100944.66;4996288;28;20049;-61
2023/09/12 05:55:58;;;;;;;10.32;9.32;;;;;;;26.07;50.80;100942.97;4994710;28;20504;-61
2023/09/12 05:58:25;;;;;;;9.73;8.82;;;;;;;26.08;51.05;100950.09;4996794;28;20404;-60
2023/09/12 06:00:53;;;;;;;10.10;9.20;;;;;;;26.08;51.04;100944.66;4994691;28;20035;-61
2023/09/12 06:03:21;;;;;;;10.95;9.88;;;;;;;26.08;51.05;100946.53;4994803;28;20409;-61
2023/09/12 06:05:49;;;;;;;11.23;10.07;;;;;;;26.08;51.02;100949.25;4994680;28;20061;-61
2023/09/12 06:08:16;;;;;;;10.82;9.68;;;;;;;26.08;50.99;100951.97;4996804;28;20050;-59
2023/09/12 06:10:43;;;;;;;10.13;9.18;;;;;;;26.08;51.11;100955.53;4995664;28;20061;-65
2023/09/12 06:13:11;;;;;;;10.50;9.60;;;;;;;26.09;51.21;100956.38;4996081;28;20050;-65
2023/09/12 06:15:41;;;;;;;10.57;9.65;;;;;;;26.08;51.10;100960.09;4995506;28;20046;-65
2023/09/12 06:18:09;;;;;;;10.32;9.40;;;;;;;26.09;51.08;100961.78;5001785;28;20058;-61
2023/09/12 06:20:36;;;;;;;13.23;11.93;;;;;;;26.08;51.15;100965.53;4995808;28;20038;-60
2023/09/12 06:23:05;;;;;;;11.18;10.07;;;;;;;26.04;51.35;100958.75;4992771;28;20055;-60
2023/09/12 06:25:32;;;;;;;12.48;11.13;;;;;;;26.02;51.66;100958.09;4996106;28;20069;-58
2023/09/12 06:28:00;;;;;;;12.65;11.38;;;;;;;25.97;51.70;100966.75;5001309;28;20057;-58
2023/09/12 06:30:27;;;;;;;13.68;12.15;;;;;;;25.93;51.58;100962.69;4995377;28;20046;-59
2023/09/12 06:32:54;;;;;;;13.18;11.98;;;;;;;25.89;51.36;100958.63;4995757;28;20057;-59
2023/09/12 06:35:22;;;;;;;13.10;11.75;;;;;;;25.85;50.85;100962.72;4995622;28;20058;-59
2023/09/12 06:37:52;;;;;;;13.38;12.07;;;;;;;25.79;51.12;100958.81;5001628;28;20046;-59
2023/09/12 06:40:19;;;;;;;13.35;12.00;;;;;;;25.72;51.17;100960.47;4995748;28;20042;-57
2023/09/12 06:42:46;;;;;;;11.48;10.38;;;;;;;25.68;50.83;100969.97;4988426;28;20053;-57
2023/09/12 06:45:14;;;;;;;14.32;9.80;;;;;;;25.63;50.44;100973.19;4995829;28;20053;-57
2023/09/12 06:47:41;;;;;;;10.98;9.20;;;;;;;25.57;50.30;100971.16;4995707;28;20050;-57
2023/09/12 06:50:09;;;;;;;11.57;10.38;;;;;;;25.53;50.33;100972.53;4995289;28;20496;-57
2023/09/12 06:52:41;;;;;;;12.35;9.15;;;;;;;25.51;50.15;100969.13;4988545;28;20409;-57
2023/09/12 06:55:08;;;;;;;8.93;8.02;;;;;;;25.51;49.68;100973.69;4996215;28;20046;-57
2023/09/12 06:57:36;;;;;;;9.15;8.25;;;;;;;25.51;49.63;100971.00;4993847;28;20050;-57
2023/09/12 07:00:06;;;;;;;9.23;8.32;;;;;;;25.51;49.45;100971.84;4995187;28;20529;-53
2023/09/12 07:02:34;;;;;;;8.95;7.85;;;;;;;25.49;49.28;100973.88;4994477;28;20048;-55
2023/09/12 07:05:03;;;;;;;9.63;8.57;;;;;;;25.49;49.57;100979.31;4995881;28;20053;-53
2023/09/12 07:07:31;;;;;;;10.23;7.85;;;;;;;25.49;49.59;100976.59;4994227;28;20042;-54
2023/09/12 07:09:59;;;;;;;10.90;8.35;;;;;;;25.48;49.54;100979.44;5001829;28;20042;-57
2023/09/12 07:12:47;;;;;;;9.13;8.23;;;;;;;25.47;49.72;100984.03;5000563;28;20108;-57
2023/09/12 07:15:14;;;;;;;9.93;8.48;;;;;;;25.50;49.70;100980.16;4995079;28;20050;-57
2023/09/12 07:17:44;;;;;;;9.55;8.48;;;;;;;25.49;49.68;100976.59;4993583;28;20069;-57
2023/09/12 07:20:11;;;;;;;9.77;8.15;;;;;;;25.50;49.61;100985.56;4993553;28;20046;-57
2023/09/12 07:22:42;;;;;;;9.55;8.27;;;;;;;25.52;49.80;100986.22;4995677;28;20057;-57
2023/09/12 07:25:11;;;;;;;9.85;8.85;;;;;;;25.52;49.97;100992.53;4988531;28;20043;-57
2023/09/12 07:27:39;;;;;;;9.93;8.63;;;;;;;25.51;49.92;100989.97;4994948;28;20051;-57
2023/09/12 07:30:07;;;;;;;9.55;8.52;;;;;;;25.51;50.18;100985.38;4994708;28;20046;-57
2023/09/12 07:32:35;;;;;;;9.65;8.75;;;;;;;25.50;50.09;100989.13;4995643;28;20412;-57
2023/09/12 07:35:03;;;;;;;9.88;8.68;;;;;;;25.53;50.21;100990.66;4994457;28;20058;-57
2023/09/12 07:37:30;;;;;;;10.88;8.68;;;;;;;25.54;50.24;100978.78;4994319;28;20440;-57
2023/09/12 07:39:57;;;;;;;11.68;9.13;;;;;;;25.55;50.27;100986.75;4994949;28;20039;-55
2023/09/12 07:42:25;;;;;;;9.77;8.52;;;;;;;25.57;50.38;100989.31;4995519;28;20046;-52
2023/09/12 07:44:52;;;;;;;12.50;9.05;;;;;;;25.58;50.71;100991.00;4994252;28;20050;-53
2023/09/12 07:47:20;;;;;;;12.93;9.63;;;;;;;25.58;51.02;100996.41;4994839;28;20050;-54
2023/09/12 07:49:53;;;;;;;11.95;9.15;;;;;;;25.60;50.88;100989.81;4994318;28;20050;-57
2023/09/12 07:52:21;;;;;;;9.80;8.80;;;;;;;25.63;51.05;101005.72;4995359;28;20046;-57
2023/09/12 07:54:52;;;;;;;9.88;8.90;;;;;;;25.64;50.87;101009.28;4994384;28;20390;-57
2023/09/12 07:57:19;;;;;;;9.43;8.50;;;;;;;25.65;50.74;101016.41;4994574;28;20047;-57
2023/09/12 07:59:47;;;;;;;10.90;9.80;;;;;;;25.66;50.83;101020.81;4996067;28;20046;-53
2023/09/12 08:02:15;;;;;;;11.48;9.98;;;;;;;25.67;50.98;101016.25;4998802;28;20497;-53
2023/09/12 08:04:42;;;;;;;11.30;9.57;;;;;;;25.68;50.81;101009.78;4997664;28;20053;-53
2023/09/12 08:07:09;;;;;;;10.52;9.05;;;;;;;25.69;51.04;101015.06;4996828;28;20054;-53
2023/09/12 08:09:49;;;;;;;9.90;8.90;;;;;;;25.73;51.37;101021.00;4998005;28;20053;-54
2023/09/12 08:12:18;;;;;;;11.68;8.32;;;;;;;25.75;50.97;101019.78;5004348;28;20405;-51
2023/09/12 08:14:46;;;;;;;10.93;9.30;;;;;;;25.77;51.12;101025.06;4997882;28;20507;-51
2023/09/12 08:17:14;;;;;;;11.20;10.10;;;;;;;25.76;50.64;101026.91;4997921;28;20531;-51
2023/09/12 08:19:41;;;;;;;11.25;9.63;;;;;;;25.76;50.41;101017.91;4998460;28;20421;-52
2023/09/12 08:22:10;;;;;;;11.10;9.35;;;;;;;25.76;50.36;101020.63;4997556;28;20049;-53
2023/09/12 08:24:39;;;;;;;12.10;10.40;;;;;;;25.75;50.16;101016.25;4997894;28;20053;-51
2023/09/12 08:27:07;;;;;;;11.50;10.23;;;;;;;25.71;50.14;101010.31;4997642;28;20050;-51
2023/09/12 08:29:34;;;;;;;12.77;9.45;;;;;;;25.70;50.10;101015.91;4998476;28;20047;-57
2023/09/12 08:32:02;;;;;;;10.25;8.98;;;;;;;25.69;50.08;101011.50;4997253;28;20050;-57
2023/09/12 08:34:30;;;;;;;11.25;10.05;;;;;;;25.69;50.16;101020.47;4997220;28;20401;-57
2023/09/12 08:36:58;;;;;;;10.20;9.20;;;;;;;25.69;50.07;101009.63;4997182;28;20050;-57
2023/09/12 08:39:27;;;;;;;9.98;8.98;;;;;;;25.70;50.17;101010.47;4998301;28;20046;-54
2023/09/12 08:41:54;;;;;;;10.15;9.15;;;;;;;25.71;49.98;101009.47;4996935;28;20057;-52
2023/09/12 08:44:22;;;;;;;11.00;8.85;;;;;;;25.74;50.23;101006.41;4997441;28;20057;-54
2023/09/12 08:46:49;;;;;;;11.35;8.82;;;;;;;25.75;50.24;101013.53;4997082;28;20050;-51
2023/09/12 08:49:17;;;;;;;10.60;9.57;;;;;;;25.74;50.31;101003.69;4998283;28;20051;-57
2023/09/12 08:51:44;;;;;;;11.00;9.82;;;;;;;25.73;50.39;101008.28;4997327;28;20425;-57
2023/09/12 08:54:12;;;;;;;9.75;8.85;;;;;;;25.72;50.11;101003.00;4990583;28;20069;-55
2023/09/12 08:56:43;;;;;;;9.18;8.18;;;;;;;25.72;50.17;101008.44;4996860;28;20053;-57
2023/09/12 08:59:10;;;;;;;9.75;8.85;;;;;;;25.74;50.62;100998.28;4997831;28;20050;-54
2023/09/12 09:01:39;;;;;;;10.57;8.40;;;;;;;25.74;51.36;101004.53;4996784;28;20099;-54
2023/09/12 09:04:07;;;;;;;8.23;7.43;;;;;;;25.77;52.19;100997.94;4996741;28;20054;-54
2023/09/12 09:06:37;;;;;;;8.85;8.05;;;;;;;25.79;52.80;100996.78;4996433;28;20536;-54
2023/09/12 09:09:07;;;;;;;8.18;7.45;;;;;;;25.80;53.39;100995.75;4997662;28;20054;-57
2023/09/12 09:11:35;;;;;;;9.30;8.32;;;;;;;25.81;53.86;101000.19;4996300;28;20538;-58
2023/09/12 09:14:03;;;;;;;8.55;7.53;;;;;;;25.83;54.12;100991.84;4996685;28;20057;-58
2023/09/12 09:16:31;;;;;;;8.75;7.85;;;;;;;25.84;54.21;100985.41;4996219;28;20050;-58
2023/09/12 09:19:09;;;;;;;9.23;8.20;;;;;;;25.85;54.20;100987.13;4997401;28;20052;-57
2023/09/12 09:21:40;;;;;;;9.13;8.05;;;;;;;25.86;54.08;100988.81;4996683;28;20046;-58
2023/09/12 09:24:10;;;;;;;8.35;7.28;;;;;;;25.86;54.46;100996.94;4996362;28;20046;-58
2023/09/12 09:26:48;;;;;;;7.95;7.15;;;;;;;25.87;54.62;100993.22;4997269;28;20054;-53
2023/09/12 09:29:19;;;;;;;8.05;7.35;;;;;;;25.88;54.77;100995.75;4996239;28;20050;-54
2023/09/12 09:31:49;;;;;;;8.45;7.65;;;;;;;25.89;54.82;100988.47;4995881;28;20042;-54
2023/09/12 09:34:19;;;;;;;9.07;8.18;;;;;;;25.88;55.01;100990.31;4994944;28;20042;-54
2023/09/12 09:36:47;;;;;;;8.75;7.90;;;;;;;25.91;54.94;100985.56;5001834;28;20050;-52
2023/09/12 09:39:20;;;;;;;8.20;7.40;;;;;;;25.90;55.07;100987.44;4995934;28;20046;-57
2023/09/12 09:41:49;;;;;;;7.65;6.85;;;;;;;25.91;55.15;100985.56;4988882;28;20049;-58
2023/09/12 09:44:17;;;;;;;8.65;7.80;;;;;;;25.91;55.37;100983.72;4996181;28;20053;-58
2023/09/12 09:46:46;;;;;;;7.43;6.72;;;;;;;25.92;55.18;100984.56;4988819;28;20050;-58
2023/09/12 09:49:19;;;;;;;8.02;7.22;;;;;;;25.93;55.18;100978.97;4996156;28;20512;-55
2023/09/12 09:51:47;;;;;;;7.95;7.13;;;;;;;25.93;55.20;100987.13;4995868;28;20042;-54
2023/09/12 09:54:15;;;;;;;7.47;6.78;;;;;;;25.93;55.32;100978.97;4996426;28;20054;-54
2023/09/12 09:56:53;;;;;;;9.07;7.53;;;;;;;25.95;55.52;100984.22;4995414;28;20050;-55
2023/09/12 09:59:23;;;;;;;7.93;7.18;;;;;;;25.94;55.77;100980.66;4995835;28;20489;-51
2023/09/12 10:01:55;;;;;;;7.75;7.05;;;;;;;25.93;55.63;100976.25;4995539;28;20378;-55
2023/09/12 10:04:23;;;;;;;8.68;7.05;;;;;;;25.94;55.60;100975.25;5001999;28;20481;-53
2023/09/12 10:06:52;;;;;;;8.05;7.25;;;;;;;25.95;55.71;100979.63;4995567;28;20501;-51
2023/09/12 10:09:22;;;;;;;7.50;6.72;;;;;;;25.95;55.11;100974.22;4988891;28;20106;-53
2023/09/12 10:11:51;;;;;;;8.27;7.47;;;;;;;25.97;54.74;100969.47;4996386;28;20049;-54
2023/09/12 10:14:20;;;;;;;7.07;6.38;;;;;;;25.97;54.35;100974.91;5003809;28;20049;-54
2023/09/12 10:16:48;;;;;;;7.70;6.95;;;;;;;25.99;53.08;100977.44;4995239;28;20042;-53
2023/09/12 10:19:28;;;;;;;8.48;7.57;;;;;;;26.00;52.78;100979.13;4995164;28;20046;-54
2023/09/12 10:22:03;;;;;;;7.28;6.65;;;;;;;26.00;53.39;100971.81;4995766;28;20045;-55
2023/09/12 10:24:32;;;;;;;7.90;7.00;;;;;;;26.00;53.37;100973.69;4995566;28;20420;-55
2023/09/12 10:27:01;;;;;;;7.32;6.60;;;;;;;26.02;53.18;100974.38;4994963;28;20042;-54
2023/09/12 10:29:30;;;;;;;8.02;7.22;;;;;;;26.03;52.07;100973.34;4995615;28;20053;-53
2023/09/12 10:31:58;;;;;;;8.65;7.85;;;;;;;26.04;51.31;100969.59;4994772;28;20050;-57
2023/09/12 10:34:27;;;;;;;8.85;7.95;;;;;;;26.04;50.81;100965.03;4995054;28;20057;-58
2023/09/12 10:36:58;;;;;;;8.60;7.75;;;;;;;26.06;51.74;100970.31;4994841;28;20046;-57
2023/09/12 10:39:28;;;;;;;8.40;7.55;;;;;;;26.06;51.97;100960.28;4995967;28;20065;-55
2023/09/12 10:41:58;;;;;;;8.10;7.30;;;;;;;26.05;50.99;100955.91;4995201;28;20049;-55
2023/09/12 10:44:26;;;;;;;8.18;7.40;;;;;;;26.07;50.60;100961.13;5000247;28;20045;-55
2023/09/12 10:46:54;;;;;;;8.25;7.45;;;;;;;26.07;51.16;100953.00;4994963;28;20053;-53
2023/09/12 10:49:22;;;;;;;8.60;7.38;;;;;;;26.07;51.24;100959.25;4996096;28;20042;-57
2023/09/12 10:51:51;;;;;;;8.20;7.35;;;;;;;26.06;51.31;100957.56;4994933;28;20042;-57
2023/09/12 10:54:36;;;;;;;8.00;7.20;;;;;;;26.06;51.03;100957.56;4995233;28;20050;-58
2023/09/12 10:57:07;;;;;;;8.85;7.90;;;;;;;26.07;50.95;100958.41;4994576;28;20046;-58
2023/09/12 10:59:38;;;;;;;8.88;7.68;;;;;;;26.08;51.08;100954.69;4988906;28;20046;-58
2023/09/12 11:02:32;;;;;;;9.23;7.72;;;;;;;26.08;51.20;100955.53;4995241;28;20077;-52
2023/09/12 11:05:00;;;;;;;9.18;8.30;;;;;;;26.08;51.21;100952.81;4995950;28;20050;-53
2023/09/12 11:07:40;;;;;;;8.95;8.05;;;;;;;26.11;50.77;100949.75;4994903;28;20515;-52
2023/09/12 11:10:18;;;;;;;9.38;8.02;;;;;;;26.13;50.92;100946.88;4993682;28;20054;-57
2023/09/12 11:12:48;;;;;;;9.45;8.45;;;;;;;26.14;51.16;100949.41;4995114;28;20444;-58
2023/09/12 11:15:17;;;;;;;8.35;7.47;;;;;;;26.14;50.95;100944.00;4994776;28;20057;-58
2023/09/12 11:17:46;;;;;;;8.75;7.80;;;;;;;26.16;51.52;100934.81;4993580;28;20404;-58
2023/09/12 11:20:15;;;;;;;8.93;8.02;;;;;;;26.16;50.59;100932.94;4994798;28;20054;-52
2023/09/12 11:22:45;;;;;;;9.10;8.05;;;;;;;26.19;50.18;100931.75;4992589;28;20046;-51
2023/09/12 11:25:26;;;;;;;9.48;8.40;;;;;;;26.19;50.70;100923.63;4995472;28;20047;-51
2023/09/12 11:27:53;;;;;;;9.07;8.18;;;;;;;26.21;50.60;100921.56;4994658;28;20061;-59
2023/09/12 11:30:23;;;;;;;9.55;8.07;;;;;;;26.23;50.44;100914.94;4994008;28;20046;-59